createdAt,value
2022-08-03T00:02:35.816Z,100354.44
2022-08-03T00:05:38.618Z,100358.19
2022-08-03T00:08:43.146Z,100354.94
2022-08-03T00:11:46.177Z,100348.69
2022-08-03T00:14:49.545Z,100353.69
2022-08-03T00:17:54.105Z,100348.44
2022-08-03T00:20:57.659Z,100345.03
2022-08-03T00:24:02.151Z,100347.06
2022-08-03T00:27:05.043Z,100347.41
2022-08-03T00:30:09.041Z,100345.03
2022-08-03T00:33:12.105Z,100337.63
2022-08-03T00:36:16.604Z,100341.88
2022-08-03T00:39:20.869Z,100346.72
2022-08-03T00:42:23.566Z,100350.56
2022-08-03T00:45:34.199Z,100355.44
2022-08-03T00:48:36.983Z,100325.59
2022-08-03T00:51:39.827Z,100340.69
2022-08-03T00:54:44.209Z,100347.16
2022-08-03T00:57:47.907Z,100348.53
2022-08-03T01:00:51.217Z,100349.75
2022-08-03T01:03:54.017Z,100355.59
2022-08-03T01:07:04.544Z,100351.59
2022-08-03T01:10:23.016Z,100347.56
2022-08-03T01:13:30.761Z,100351.53
2022-08-03T01:17:00.540Z,100345.44
2022-08-03T01:20:07.880Z,100345.66
2022-08-03T01:23:36.243Z,100341.75
2022-08-03T01:27:05.055Z,100341.34
2022-08-03T01:30:12.123Z,100343.09
2022-08-03T01:33:19.913Z,100338.09
2022-08-03T01:36:26.140Z,100329.56
2022-08-03T01:39:31.751Z,100338.09
2022-08-03T01:42:37.624Z,100335.44
2022-08-03T01:45:43.162Z,100330.84
2022-08-03T01:48:49.010Z,100327.34
2022-08-03T01:52:03.210Z,100333.03
2022-08-03T01:55:09.627Z,100327.78
2022-08-03T01:58:15.446Z,100330.63
2022-08-03T02:01:21.756Z,100331.72
2022-08-03T02:04:26.626Z,100329.34
2022-08-03T02:07:31.476Z,100324.19
2022-08-03T02:10:36.329Z,100324.31
2022-08-03T02:13:40.579Z,100324.56
2022-08-03T02:16:46.449Z,100327.50
2022-08-03T02:19:52.299Z,100327.00
2022-08-03T02:22:55.602Z,100324.56
2022-08-03T02:26:02.094Z,100332.16
2022-08-03T02:29:12.447Z,100323.19
2022-08-03T02:32:22.089Z,100323.28
2022-08-03T02:35:29.717Z,100329.00
2022-08-03T02:38:35.397Z,100322.88
2022-08-03T02:41:44.606Z,100322.25
2022-08-03T02:44:51.088Z,100320.69
2022-08-03T02:47:59.653Z,100316.31
2022-08-03T02:51:04.928Z,100313.94
2022-08-03T02:54:10.414Z,100308.66
2022-08-03T02:57:15.373Z,100320.59
2022-08-03T03:00:27.253Z,100313.63
2022-08-03T03:03:35.272Z,100316.81
2022-08-03T03:06:43.964Z,100311.13
2022-08-03T03:09:50.618Z,100313.75
2022-08-03T03:12:57.266Z,100322.94
2022-08-03T03:16:01.864Z,100315.03
2022-08-03T03:19:06.480Z,100319.66
2022-08-03T03:22:10.170Z,100318.03
2022-08-03T03:25:13.244Z,100287.44
2022-08-03T03:28:16.490Z,100310.91
2022-08-03T03:31:19.270Z,100320.97
2022-08-03T03:34:23.929Z,100322.03
2022-08-03T03:37:28.195Z,100323.88
2022-08-03T03:40:31.369Z,100330.22
2022-08-03T03:43:34.897Z,100327.72
2022-08-03T03:46:38.761Z,100324.22
2022-08-03T03:49:43.214Z,100317.22
2022-08-03T03:52:46.153Z,100309.69
2022-08-03T03:56:02.349Z,100316.78
2022-08-03T03:59:05.738Z,100315.91
2022-08-03T04:02:10.107Z,100321.50
2022-08-03T04:05:32.043Z,100323.56
2022-08-03T04:08:52.409Z,100318.09
2022-08-03T04:11:59.736Z,100322.38
2022-08-03T04:15:04.837Z,100325.13
2022-08-03T04:18:10.373Z,100324.44
2022-08-03T04:21:16.214Z,100321.50
2022-08-03T04:24:21.893Z,100330.59
2022-08-03T04:27:34.419Z,100326.84
2022-08-03T04:30:47.527Z,100319.19
2022-08-03T04:33:52.721Z,100327.41
2022-08-03T04:37:01.399Z,100330.03
2022-08-03T04:40:09.845Z,100321.69
2022-08-03T04:43:16.412Z,100327.94
2022-08-03T04:46:20.706Z,100331.66
2022-08-03T04:49:24.166Z,100333.50
2022-08-03T04:52:28.663Z,100336.16
2022-08-03T04:55:33.301Z,100327.72
2022-08-03T04:58:36.658Z,100336.72
2022-08-03T05:01:40.889Z,100340.91
2022-08-03T05:04:46.497Z,100334.09
2022-08-03T05:07:51.081Z,100333.88
2022-08-03T05:10:53.807Z,100337.16
2022-08-03T05:13:56.683Z,100336.50
2022-08-03T05:16:59.453Z,100333.03
2022-08-03T05:20:03.960Z,100338.09
2022-08-03T05:23:08.052Z,100332.69
2022-08-03T05:26:11.791Z,100335.03
2022-08-03T05:29:14.484Z,100332.88
2022-08-03T05:32:18.071Z,100318.06
2022-08-03T05:36:01.805Z,100333.63
2022-08-03T05:38:45.131Z,100326.66
2022-08-03T05:41:48.112Z,100330.16
2022-08-03T05:44:51.172Z,100330.25
2022-08-03T05:47:54.232Z,100322.25
2022-08-03T05:50:56.946Z,100323.19
2022-08-03T05:54:01.002Z,100311.69
2022-08-03T05:57:03.737Z,100294.06
2022-08-03T06:00:08.920Z,100275.22
2022-08-03T06:03:12.811Z,100287.72
2022-08-03T06:06:15.858Z,100297.81
2022-08-03T06:09:20.046Z,100291.25
2022-08-03T06:12:22.777Z,100285.72
2022-08-03T06:15:25.710Z,100278.28
2022-08-03T06:18:36.223Z,100283.75
2022-08-03T06:21:41.728Z,100287.78
2022-08-03T06:24:53.589Z,100275.16
2022-08-03T06:27:57.870Z,100246.16
2022-08-03T06:31:04.370Z,100271.16
2022-08-03T06:34:33.268Z,100267.63
2022-08-03T06:37:33.806Z,100269.75
2022-08-03T06:40:40.185Z,100274.06
2022-08-03T06:44:03.904Z,100271.75
2022-08-03T06:47:07.308Z,100273.84
2022-08-03T06:50:12.730Z,100268.03
2022-08-03T06:53:21.502Z,100268.28
2022-08-03T06:56:25.851Z,100268.91
2022-08-03T07:00:09.499Z,100271.59
2022-08-03T07:02:56.140Z,100273.09
2022-08-03T07:06:00.839Z,100273.66
2022-08-03T07:09:03.971Z,100270.50
2022-08-03T07:12:08.595Z,100270.22
2022-08-03T07:15:20.559Z,100266.50
2022-08-03T07:18:35.296Z,100262.91
2022-08-03T07:21:38.010Z,100261.41
2022-08-03T07:24:41.919Z,100256.19
2022-08-03T07:27:51.400Z,100264.91
2022-08-03T07:30:54.885Z,100254.72
2022-08-03T07:33:57.636Z,100252.72
2022-08-03T07:37:00.859Z,100254.25
2022-08-03T07:40:05.223Z,100258.06
2022-08-03T07:43:09.480Z,100259.09
2022-08-03T07:46:12.453Z,100260.88
2022-08-03T07:49:15.445Z,100237.47
2022-08-03T07:52:36.340Z,100242.88
2022-08-03T07:55:39.669Z,100248.81
2022-08-03T07:58:43.896Z,100239.50
2022-08-03T08:01:46.625Z,100235.38
2022-08-03T08:04:49.589Z,100236.75
2022-08-03T08:07:52.444Z,100231.91
2022-08-03T08:10:58.013Z,100228.06
2022-08-03T08:14:03.893Z,100222.72
2022-08-03T08:17:07.482Z,100224.34
2022-08-03T08:20:11.753Z,100230.06
2022-08-03T08:23:42.799Z,100226.94
2022-08-03T08:26:37.815Z,100234.00
2022-08-03T08:29:47.630Z,100229.03
2022-08-03T08:32:55.983Z,100226.31
2022-08-03T08:35:58.731Z,100221.38
2022-08-03T08:39:01.493Z,100214.69
2022-08-03T08:42:04.515Z,100213.81
2022-08-03T08:45:10.041Z,100218.09
2022-08-03T08:48:14.910Z,100217.25
2022-08-03T08:51:19.561Z,100187.25
2022-08-03T08:54:23.495Z,100190.84
2022-08-03T08:57:42.844Z,100190.16
2022-08-03T09:00:48.494Z,100199.63
2022-08-03T09:03:51.900Z,100195.16
2022-08-03T09:07:18.810Z,100194.84
2022-08-03T09:10:22.002Z,100196.59
2022-08-03T09:13:24.834Z,100186.00
2022-08-03T09:16:29.096Z,100192.66
2022-08-03T09:19:33.805Z,100181.00
2022-08-03T09:22:37.030Z,100190.75
2022-08-03T09:25:42.296Z,100176.28
2022-08-03T09:29:00.661Z,100167.06
2022-08-03T09:32:08.938Z,100162.19
2022-08-03T09:35:12.827Z,100174.47
2022-08-03T09:38:18.103Z,100170.06
2022-08-03T09:41:20.921Z,100158.72
2022-08-03T09:44:35.844Z,100159.53
2022-08-03T09:47:45.005Z,100151.50
2022-08-03T09:50:58.421Z,100149.84
2022-08-03T09:54:20.301Z,100150.28
2022-08-03T09:57:24.189Z,100149.50
2022-08-03T10:00:27.079Z,100153.22
2022-08-03T10:03:35.042Z,100151.44
2022-08-03T10:06:37.973Z,100149.91
2022-08-03T10:09:54.658Z,100136.78
2022-08-03T10:12:57.850Z,100130.75
2022-08-03T10:16:21.277Z,100133.56
2022-08-03T10:19:25.672Z,100129.94
2022-08-03T10:22:30.801Z,100091.88
2022-08-03T10:25:35.825Z,100121.59
2022-08-03T10:28:45.517Z,100116.13
2022-08-03T10:31:57.568Z,100117.06
2022-08-03T10:35:19.095Z,100114.63
2022-08-03T10:38:30.403Z,100103.88
2022-08-03T10:41:37.353Z,100107.22
2022-08-03T10:44:42.099Z,100112.56
2022-08-03T10:47:45.753Z,100108.38
2022-08-03T10:50:51.609Z,100103.28
2022-08-03T10:53:55.701Z,100102.47
2022-08-03T10:57:16.456Z,100090.16
2022-08-03T11:00:22.337Z,100092.13
2022-08-03T11:03:25.106Z,100085.78
2022-08-03T11:06:37.562Z,100088.09
2022-08-03T11:09:43.333Z,100077.78
2022-08-03T11:12:47.336Z,100080.03
2022-08-03T11:16:01.610Z,100080.53
2022-08-03T11:19:07.245Z,100055.53
2022-08-03T11:22:12.316Z,100068.34
2022-08-03T11:25:53.598Z,100066.28
2022-08-03T11:28:40.879Z,100058.03
2022-08-03T11:31:50.324Z,100069.06
2022-08-03T11:35:09.102Z,100061.16
2022-08-03T11:38:13.470Z,100056.03
2022-08-03T11:41:34.275Z,100057.88
2022-08-03T11:44:47.897Z,100045.19
2022-08-03T11:47:54.887Z,100045.19
2022-08-03T11:50:58.558Z,100044.13
2022-08-03T11:54:05.322Z,100043.75
2022-08-03T11:57:08.253Z,100043.59
2022-08-03T12:00:22.745Z,100041.66
2022-08-03T12:03:25.500Z,100031.34
2022-08-03T12:06:28.332Z,100025.34
2022-08-03T12:09:36.336Z,100018.03
2022-08-03T12:12:44.506Z,100014.63
2022-08-03T12:15:53.501Z,100021.13
2022-08-03T12:19:01.541Z,100017.47
2022-08-03T12:22:04.456Z,100010.34
2022-08-03T12:25:10.837Z,100009.53
2022-08-03T12:28:35.977Z,100008.66
2022-08-03T12:31:41.049Z,100009.94
2022-08-03T12:34:47.836Z,100003.94
2022-08-03T12:37:50.779Z,99999.63
2022-08-03T12:41:14.647Z,100008.91
2022-08-03T12:44:17.430Z,99998.75
2022-08-03T12:47:20.400Z,99999.19
2022-08-03T12:50:28.668Z,99996.81
2022-08-03T12:53:39.016Z,99992.75
2022-08-03T12:57:01.586Z,99992.75
2022-08-03T13:00:13.059Z,99991.47
2022-08-03T13:03:38.975Z,99984.13
2022-08-03T13:06:42.948Z,99983.03
2022-08-03T13:09:47.973Z,99967.97
2022-08-03T13:12:52.760Z,99982.38
2022-08-03T13:15:55.480Z,99979.78
2022-08-03T13:18:58.189Z,99982.31
2022-08-03T13:22:04.329Z,99974.56
2022-08-03T13:25:08.866Z,99977.34
2022-08-03T13:28:14.440Z,99980.97
2022-08-03T13:31:17.487Z,99974.06
2022-08-03T13:34:23.892Z,99968.41
2022-08-03T13:37:27.257Z,99971.63
2022-08-03T13:41:05.278Z,99947.75
2022-08-03T13:44:32.616Z,99848.28
2022-08-03T13:48:16.822Z,99946.59
2022-08-03T13:51:54.636Z,99958.63
2022-08-03T13:54:57.818Z,99953.22
2022-08-03T13:58:11.928Z,99949.72
2022-08-03T14:01:16.381Z,99947.97
2022-08-03T14:04:21.839Z,99931.63
2022-08-03T14:07:25.306Z,99948.09
2022-08-03T14:10:28.020Z,99945.06
2022-08-03T14:13:30.743Z,99938.81
2022-08-03T14:16:34.877Z,99947.41
2022-08-03T14:19:44.896Z,99930.28
2022-08-03T14:22:57.021Z,99931.84
2022-08-03T14:25:59.767Z,99926.88
2022-08-03T14:29:02.883Z,99916.25
2022-08-03T14:32:11.664Z,99917.78
2022-08-03T14:35:15.595Z,99917.28
2022-08-03T14:38:19.221Z,99916.78
2022-08-03T14:41:22.076Z,99920.41
2022-08-03T14:44:24.793Z,99901.03
2022-08-03T14:47:28.885Z,99909.84
2022-08-03T14:50:41.960Z,99913.00
2022-08-03T14:53:46.663Z,99908.00
2022-08-03T14:56:49.373Z,99908.41
2022-08-03T14:59:55.538Z,99891.56
2022-08-03T15:03:01.989Z,99900.16
2022-08-03T15:06:05.039Z,99896.41
2022-08-03T15:09:21.106Z,99890.56
2022-08-03T15:12:26.098Z,99889.88
2022-08-03T15:15:29.306Z,99891.56
2022-08-03T15:18:33.747Z,99885.81
2022-08-03T15:21:46.545Z,99884.56
2022-08-03T15:24:50.829Z,99882.66
2022-08-03T15:28:04.035Z,99884.00
2022-08-03T15:31:08.134Z,99881.66
2022-08-03T15:34:13.083Z,99876.69
2022-08-03T15:37:16.720Z,99873.97
2022-08-03T15:40:22.645Z,99868.56
2022-08-03T15:43:31.912Z,99872.25
2022-08-03T15:46:38.923Z,99861.03
2022-08-03T15:49:49.990Z,99862.09
2022-08-03T15:52:56.026Z,99861.25
2022-08-03T15:56:11.409Z,99856.06
2022-08-03T15:59:17.272Z,99852.81
2022-08-03T16:02:20.309Z,99849.00
2022-08-03T16:05:24.556Z,99846.03
2022-08-03T16:08:27.427Z,99850.59
2022-08-03T16:11:30.631Z,99847.41
2022-08-03T16:14:42.198Z,99855.16
2022-08-03T16:17:53.746Z,99851.28
2022-08-03T16:20:58.189Z,99853.44
2022-08-03T16:24:02.125Z,99849.19
2022-08-03T16:27:17.467Z,99850.91
2022-08-03T16:30:31.320Z,99847.75
2022-08-03T16:33:36.120Z,99854.47
2022-08-03T16:36:40.387Z,99853.25
2022-08-03T16:39:43.101Z,99847.91
2022-08-03T16:42:45.846Z,99849.66
2022-08-03T16:45:49.282Z,99850.75
2022-08-03T16:48:52.397Z,99857.25
2022-08-03T16:51:56.614Z,99863.31
2022-08-03T16:55:02.205Z,99857.09
2022-08-03T16:58:07.472Z,99851.75
2022-08-03T17:01:22.377Z,99854.06
2022-08-03T17:04:28.360Z,99856.88
2022-08-03T17:07:33.275Z,99860.41
2022-08-03T17:10:35.952Z,99860.22
2022-08-03T17:13:40.323Z,99855.72
2022-08-03T17:16:52.571Z,99862.38
2022-08-03T17:19:58.633Z,99860.22
2022-08-03T17:23:19.202Z,99868.88
2022-08-03T17:26:38.443Z,99866.97
2022-08-03T17:29:48.402Z,99810.75
2022-08-03T17:32:52.659Z,99866.06
2022-08-03T17:36:01.829Z,99861.34
2022-08-03T17:39:06.953Z,99868.22
2022-08-03T17:42:31.217Z,99866.03
2022-08-03T17:45:42.301Z,99872.44
2022-08-03T17:48:58.908Z,99875.63
2022-08-03T17:52:04.036Z,99882.03
2022-08-03T17:55:55.229Z,99881.06
2022-08-03T17:58:53.534Z,99875.34
2022-08-03T18:02:29.777Z,99886.84
2022-08-03T18:06:11.718Z,99895.03
2022-08-03T18:09:05.074Z,99902.25
2022-08-03T18:12:29.445Z,99902.41
2022-08-03T18:15:38.738Z,99905.16
2022-08-03T18:18:44.049Z,99908.09
2022-08-03T18:22:02.920Z,99909.09
2022-08-03T18:25:09.300Z,99921.63
2022-08-03T18:28:18.875Z,99920.34
2022-08-03T18:32:00.267Z,99915.19
2022-08-03T18:34:53.674Z,99919.41
2022-08-03T18:37:59.108Z,99925.25
2022-08-03T18:41:12.712Z,99931.50
2022-08-03T18:44:53.410Z,99906.28
2022-08-03T18:48:05.102Z,99931.63
2022-08-03T18:51:11.964Z,99933.88
2022-08-03T18:54:59.037Z,99935.00
2022-08-03T18:58:18.197Z,99936.31
2022-08-03T19:02:00.639Z,99947.34
2022-08-03T19:04:55.453Z,99946.06
2022-08-03T19:08:06.164Z,99947.41
2022-08-03T19:11:28.243Z,99956.03
2022-08-03T19:14:41.636Z,99959.25
2022-08-03T19:17:50.264Z,99961.75
2022-08-03T19:20:58.043Z,99967.75
2022-08-03T19:27:27.286Z,99973.06
2022-08-03T19:30:38.724Z,99969.31
2022-08-03T19:33:57.472Z,99982.88
2022-08-03T19:37:01.590Z,99977.00
2022-08-03T19:40:06.072Z,99984.34
2022-08-03T19:43:21.581Z,99984.19
2022-08-03T19:46:27.635Z,99982.81
2022-08-03T19:50:06.167Z,99995.88
2022-08-03T19:53:04.792Z,99981.88
2022-08-03T19:56:11.187Z,99984.34
2022-08-03T19:59:14.836Z,99987.81
2022-08-03T20:02:27.212Z,99984.91
2022-08-03T20:05:45.100Z,99995.69
2022-08-03T20:08:54.939Z,99995.69
2022-08-03T20:11:57.877Z,99996.41
2022-08-03T20:15:01.411Z,99997.47
2022-08-03T20:18:04.575Z,99995.38
2022-08-03T20:21:14.814Z,99992.59
2022-08-03T20:24:24.355Z,99989.69
2022-08-03T20:27:30.282Z,99985.88
2022-08-03T20:30:34.195Z,99988.50
2022-08-03T20:33:46.293Z,100006.19
2022-08-03T20:36:53.110Z,99987.94
2022-08-03T20:39:55.872Z,99997.50
2022-08-03T20:42:59.782Z,99997.66
2022-08-03T20:49:27.864Z,100000.03
2022-08-03T20:52:32.772Z,99995.03
2022-08-03T20:55:47.783Z,99998.13
2022-08-03T20:58:59.273Z,100005.06
2022-08-03T21:02:03.569Z,100002.97
2022-08-03T21:05:09.217Z,100002.59
2022-08-03T21:08:15.892Z,100006.91
2022-08-03T21:11:20.159Z,100002.91
2022-08-03T21:13:09.132Z,99968.31
2022-08-03T21:13:13.491Z,99997.28
2022-08-03T21:14:28.911Z,99997.34
2022-08-03T21:17:42.003Z,100002.34
2022-08-03T21:20:47.692Z,99996.94
2022-08-03T21:23:53.208Z,100006.94
2022-08-03T21:26:56.041Z,100000.03
2022-08-03T21:29:59.870Z,100003.13
2022-08-03T21:33:02.716Z,99994.47
2022-08-03T21:36:06.706Z,99998.72
2022-08-03T21:39:12.158Z,100002.00
2022-08-03T21:42:15.548Z,99991.41
2022-08-03T21:45:18.439Z,100000.41
2022-08-03T21:48:25.228Z,100001.91
2022-08-03T21:51:31.235Z,100002.38
2022-08-03T21:54:38.838Z,100004.63
2022-08-03T21:57:46.172Z,100004.25
2022-08-03T22:00:49.104Z,100001.81
2022-08-03T22:03:54.273Z,100008.00
2022-08-03T22:06:57.867Z,100005.84
2022-08-03T22:10:04.700Z,100004.63
2022-08-03T22:13:07.533Z,100008.03
2022-08-03T22:16:10.697Z,100002.81
2022-08-03T22:19:13.556Z,100004.34
2022-08-03T22:22:18.953Z,100006.88
2022-08-03T22:25:29.463Z,100012.19
2022-08-03T22:28:33.210Z,100016.25
2022-08-03T22:31:58.068Z,100007.91
2022-08-03T22:35:01.020Z,100017.84
2022-08-03T22:38:07.908Z,100020.16
2022-08-03T22:41:12.151Z,100026.44
2022-08-03T22:44:14.982Z,100030.00
2022-08-03T22:47:22.439Z,100035.88
2022-08-03T22:50:31.968Z,100039.41
2022-08-03T22:53:37.256Z,100029.13
2022-08-03T22:56:41.904Z,100022.03
2022-08-03T22:59:47.317Z,100023.91
2022-08-03T23:02:52.071Z,100020.44
2022-08-03T23:06:02.022Z,100017.81
2022-08-03T23:09:09.536Z,100022.53
2022-08-03T23:12:16.272Z,100025.88
2022-08-03T23:15:19.610Z,100013.72
2022-08-03T23:18:23.553Z,100025.97
2022-08-03T23:21:53.705Z,100031.78
2022-08-03T23:24:50.961Z,100028.63
2022-08-03T23:28:05.421Z,100031.97
2022-08-03T23:31:10.077Z,100030.53
2022-08-03T23:34:33.044Z,100025.31
2022-08-03T23:38:04.739Z,100029.41
2022-08-03T23:41:00.545Z,100031.44
2022-08-03T23:44:05.565Z,100020.31
2022-08-03T23:47:08.297Z,100028.44
2022-08-03T23:50:11.005Z,100028.59
2022-08-03T23:53:19.364Z,100022.66
2022-08-03T23:56:28.761Z,100025.72
2022-08-03T23:59:41.609Z,100024.09
